x

Neah Bay, - 6nm North Of Cape Flattery, Wa (traffic Separation Lighted Buoy) (46087) Wave Buoy

4:50 - Sun 26th Mar 2017 All times are PDT. -7 hours from GMT.

  • Sig Wave height 5.9ft
  • Swell Direction
  • Peak Period 8s
  • Average Period 6s
  • Wind
    11mph, 16mph gusts
  • Sea Temp 49°f
  • Luft Temp 46°f
  • Sea Pressure 1004.9mb
  • Neah Bay, - 6nm North Of Cape Flattery, Wa     (traffic Separation Lighted Buoy)
  • Neah Bay, - 6nm North Of Cape Flattery, Wa     (traffic Separation Lighted Buoy)

More Historic Weather Station data

Upgrade to MSW Pro to gain access to the past 30 days of data for over 8000 Wavebouys and Weather Stations around the globe.

Join Pro

Comparision Forecast

View Surf forecast
   
So 03/26 4:50 6ft 8s 6s 11 16 mph 1004.9mb 49f 46f
4:20 6ft 9s 6s 16 20 mph 1004.7mb 49f 46f
3:50 6ft 9s 7s 16 20 mph 1004.4mb 49f 46f
3:20 5.5ft 8s 7s 18 22 mph 1004.3mb 49f 45f
2:50 5.5ft 9s 7s 20 25 mph 1004.3mb 49f 46f
2:20 5ft 7s 6s 20 22 mph 1004.3mb 49f 45f
1:50 5ft 9s 6s 20 25 mph 1004.3mb 49f 45f
1:20 5ft 8s 6s 18 22 mph 1004.4mb 49f 45f
12:50 5ft 8s 6s 18 27 mph 1004.5mb 49f 45f
12:20 4.5ft 9s 6s 20 25 mph 1004.5mb 49f 45f
11:50 5ft 11s 6s 22 25 mph 1005.1mb 49f 44f
11:20 5ft 9s 5s 22 27 mph 1005.2mb 49f 44f
10:50 5ft 9s 6s 25 29 mph 1005.3mb 49f 43f
10:20 5ft 9s 5s 25 29 mph 1005.6mb 49f 43f
9:50 5.5ft 9s 6s 25 31 mph 1005.8mb 49f 43f
9:20 5ft 9s 6s 25 31 mph 1006.1mb 49f 43f
8:50 5ft 12s 6s 22 29 mph 1006.4mb 49f 43f
8:20 4.5ft 12s 5s 22 27 mph 1006.6mb 49f 44f
7:50 4.5ft 12s 5s 20 25 mph 1007.1mb 49f 43f
7:20 5ft 9s 5s 20 25 mph 1007.6mb 49f 43f
6:50 5.5ft 12s 5s 22 29 mph 1007.9mb 49f 44f
6:20 5ft 9s 5s 22 25 mph 1008.2mb 49f 45f
5:50 5ft 9s 6s 25 29 mph 1008.6mb 49f 45f
5:20 5.5ft 10s 6s 22 25 mph 1009.1mb 49f 45f
4:50 5ft 12s 6s 22 27 mph 1009.5mb 49f 46f
4:20 5.5ft 10s 8s 22 27 mph 1010.3mb 49f 46f
3:50 6ft 10s 8s 18 25 mph 1011.1mb 49f 46f
3:20 6.5ft 9s 8s 18 22 mph 1011.6mb 49f 45f
2:50 6.5ft 9s 8s 18 22 mph 1012.1mb 49f 45f
2:20 6.5ft 12s 8s 16 22 mph 1012.7mb 49f 45f
1:50 6.5ft 10s 8s 16 18 mph 1013.4mb 49f 45f
1:20 7.5ft 12s 8s 13 18 mph 1013.9mb 49f 45f
12:50 7ft 11s 8s 13 18 mph 1014.5mb 49f 45f
12:20 7ft 10s 8s 11 16 mph 1014.5mb 49f 45f
Sa 03/25 11:50 8ft 10s 8s 11 13 mph 1015.1mb 49f 46f
11:20 8ft 12s 8s 9 16 mph 1015.5mb 49f 46f
10:50 7.5ft 9s 8s 13 16 mph 1015.4mb 49f 46f
10:20 8.5ft 9s 9s 9 13 mph 1015.7mb 49f 46f
9:50 8ft 13s 9s 13 16 mph 1016mb 49f 46f
9:20 8ft 13s 9s 11 13 mph 1016.1mb 49f 46f
8:50 7.5ft 10s 9s 9 11 mph 1016.5mb 49f 46f
8:20 6.5ft 9s 8s 11 13 mph 1016.9mb 49f 46f
7:50 7.5ft 10s 9s 9 11 mph 1017.1mb 49f 46f
7:20 7ft 13s 9s 7 9 mph 1017.6mb 49f 46f
6:50 6.5ft 14s 9s 11 13 mph 1017.7mb 49f 46f
6:20 6.5ft 13s 9s 13 16 mph 1017.9mb 50f 46f
5:50 6.5ft 10s 9s 7 9 mph 1018.4mb 50f 46f
5:20 7.5ft 10s 9s 9 11 mph 1018.6mb 50f 46f
4:50 7ft 10s 8s 7 9 mph 1018.9mb 50f 46f
4:20 7ft 10s 9s 7 9 mph 1019.1mb 50f 46f
3:50 7ft 9s 8s 9 11 mph 1019.2mb 50f 46f
3:20 7ft 10s 8s 11 13 mph 1019.1mb 49f 46f
2:50 8ft 10s 8s 11 16 mph 1019.2mb 50f 46f
2:20 8.5ft 10s 8s 13 16 mph 1019.4mb 50f 46f
1:50 8ft 10s 8s 2 4 mph 1019.4mb 49f 44f
1:20 7ft 9s 7s 2 7 mph 1019.4mb 49f 41f
12:50 8.5ft 10s 8s 20 22 mph 1019.2mb 49f 42f
12:20 8.5ft 10s 8s 4 9 mph 1019mb 49f 46f
11:50 8.5ft 10s 8s 2 7 mph 1019.1mb 49f 45f
11:20 8ft 10s 8s 4 9 mph 1019.1mb 49f 44f
10:50 9ft 10s 8s 11 13 mph 1019mb 49f 45f
10:20 8ft 10s 8s 18 25 mph 1018.3mb 49f 45f
9:50 8ft 10s 8s 11 13 mph 1018mb 49f 46f
9:20 7ft 10s 8s 11 16 mph 1018.1mb 49f 45f
8:50 8ft 10s 8s 11 16 mph 1017.7mb 49f 45f
8:20 8.5ft 10s 7s 9 13 mph 1017.2mb 49f 45f
7:50 7.5ft 10s 7s 18 22 mph 1017.1mb 49f 44f
7:20 6.5ft 10s 8s 25 29 mph 1016.8mb 49f 43f
6:50 6.5ft 10s 8s 7 11 mph 1017mb 49f 45f
6:20 6ft 11s 7s 11 16 mph 1016.8mb 49f 47f
5:50 6.5ft 10s 7s 7 11 mph 1016.6mb 49f 46f
5:20 7ft 10s 7s 11 13 mph 1016.3mb 49f 45f
4:50 6.5ft 11s 7s 13 25 mph 1016.1mb 49f 47f
4:20 6.5ft 11s 7s 16 18 mph 1016.1mb 49f 47f
3:50 7ft 11s 7s 18 20 mph 1015.8mb 49f 47f
3:20 6ft 11s 6s 18 22 mph 1015.5mb 49f 47f
2:50 6ft 11s 6s 20 25 mph 1015.4mb 49f 47f
2:20 6ft 11s 6s 20 25 mph 1015mb 49f 47f
1:50 6ft 10s 6s 22 29 mph 1014.7mb 49f 48f
1:20 6.5ft 10s 7s 25 29 mph 1014.1mb 49f 47f
12:50 7ft 11s 7s 20 25 mph 1013.7mb 49f 47f
12:20 7ft 11s 7s 22 27 mph 1013.1mb 49f 46f
Fr 03/24 11:50 7ft 11s 6s 20 25 mph 1012.6mb 49f 45f
11:20 8ft 11s 6s 18 20 mph 1012.2mb 49f 46f
10:50 8ft 11s 6s 22 29 mph 1011.8mb 49f 47f
10:20 8ft 11s 7s 22 27 mph 1011.3mb 49f 49f
9:50 8.5ft 11s 7s 20 25 mph 1011mb 49f 48f
9:20 10ft 11s 7s 22 27 mph 1010.6mb 49f 48f
8:50 8.5ft 11s 7s 22 29 mph 1010.2mb 49f 49f
8:20 8ft 11s 7s 25 29 mph 1009.7mb 49f 48f
7:50 8ft 11s 7s 25 29 mph 1009.5mb 49f 48f
7:20 8ft 11s 7s 18 29 mph 1009.2mb 49f 47f
6:50 8ft 11s 8s 22 27 mph 1009.1mb 49f 46f
6:20 7.5ft 11s 7s 20 25 mph 1008.8mb 50f 48f
5:50 8ft 10s 8s 20 25 mph 1008.7mb 50f 48f
5:20 8ft 11s 8s 20 25 mph 1008.6mb 50f 48f
4:50 7ft 11s 7s 20 25 mph 1008.4mb 50f 48f
4:20 8ft 11s 8s 20 25 mph 1008.2mb 50f 49f
3:50 7.5ft 11s 8s 18 25 mph 1007.8mb 50f 49f
3:20 7ft 11s 8s 22 27 mph 1007.6mb 50f 49f
2:50 7ft 11s 8s 18 20 mph 1007.5mb 50f 48f
2:20 7ft 12s 8s 16 18 mph 1007.2mb 50f 49f
1:50 7ft 11s 7s 18 20 mph 1007.1mb 50f 49f
1:20 7ft 12s 7s 18 22 mph 1006.9mb 49f 48f
12:50 5.5ft 11s 7s 16 18 mph 1006.9mb 49f 48f
12:20 5.5ft 10s 6s 13 16 mph 1006.7mb 49f 48f
11:50 5ft 11s 7s 16 18 mph 1006.6mb 49f 48f
11:20 5ft 13s 7s 18 25 mph 1006.1mb 49f 49f
10:50 5ft 11s 7s 16 20 mph 1005.7mb 49f 49f
10:20 5ft 10s 7s 16 20 mph 1005.7mb 49f 49f
9:50 5ft 13s 7s 18 20 mph 1005.5mb 49f 48f
9:20 5ft 10s 8s 16 22 mph 1005.4mb 49f 48f
8:50 5ft 10s 7s 13 18 mph 1005.4mb 49f 47f
8:20 5ft 11s 7s 16 22 mph 1005.5mb 49f 47f
7:50 5ft 11s 7s 18 22 mph 1005.2mb 49f 48f
7:20 5ft 11s 7s 13 16 mph 1005.5mb 49f 49f
6:50 5ft 10s 7s 13 16 mph 1005.8mb 49f 49f
6:20 5ft 11s 7s 13
mph
1005.7mb 49f 49f
5:50 5.5ft 10s 7s 13 16 mph 1005.5mb 49f 49f
5:20 5ft 11s 7s 13 16 mph 1005.5mb 49f 49f
4:50 5ft 11s 7s 13 18 mph 1005.7mb 49f 49f
4:20 6ft 11s 7s 16 20 mph 1005.9mb 49f 49f
3:50 5.5ft 11s 7s 13 18 mph 1006.1mb 49f 50f
3:20 6.5ft 10s 7s 18 22 mph 1006mb 49f 50f
2:50 6ft 11s 7s 16 20 mph 1006.3mb 49f 50f
2:20 6ft 11s 7s 18 20 mph 1006.2mb 49f 50f
1:50 6ft 11s 7s 18 25 mph 1006.1mb 49f 50f
1:20 6ft 10s 7s 18 20 mph 1006.2mb 49f 49f
12:50 6ft 10s 7s 16 20 mph 1006.3mb 49f 48f
12:20 6ft 10s 8s 16 20 mph 1006.5mb 49f 49f
Do 03/23 11:50 6ft 11s 8s 16 18 mph 1006.6mb 49f 48f
11:20 5.5ft 10s 8s 16 22 mph 1006.8mb 49f 48f
10:50 5ft 10s 7s 16 18 mph 1007mb 49f 48f
10:20 5.5ft 9s 7s 18 20 mph 1007.3mb 49f 47f
9:50 5ft 9s 7s 20 22 mph 1007.3mb 49f 47f
9:20 5ft 9s 7s 20 25 mph 1007.3mb 49f 46f
8:50 5.5ft 8s 7s 18 22 mph 1007.8mb 49f 46f
8:20 6ft 9s 7s 16 20 mph 1008.3mb 49f 46f
7:50 5.5ft 10s 7s 16 20 mph 1008.7mb 49f 46f
7:20 5.5ft 8s 7s 16 20 mph 1009.2mb 49f 46f
6:50 6ft 8s 7s 18 22 mph 1009.2mb 49f 46f
6:20 6ft 8s 6s 20 22 mph 1009.8mb 49f 46f
5:50 6ft 8s 6s 20 22 mph 1010.1mb 49f 46f
5:20 5.5ft 8s 6s 20 25 mph 1010.5mb 49f 46f
4:50 5ft 8s 6s 22 25 mph 1010.5mb 49f 47f
4:20 4.5ft 8s 6s 18 20 mph 1011.4mb 49f 47f
3:50 5ft 7s 6s 16 18 mph 1011.8mb 49f 47f
3:20 5ft 7s 6s 16 20 mph 1012.2mb 49f 47f
2:50 5ft 12s 6s 18 20 mph 1012.6mb 49f 46f
2:20 5ft 7s 6s 16 20 mph 1012.9mb 49f 47f
1:50 5ft 12s 6s 18 22 mph 1013mb 49f 47f
1:20 4.5ft 12s 6s 20 22 mph 1013.3mb 49f 48f
12:50 5ft 11s 6s 20 25 mph 1013.8mb 49f 47f
12:20 5ft 12s 6s 20 25 mph 1014.2mb 49f 47f
11:50 5ft 7s 6s 20 25 mph 1014.4mb 49f 47f
11:20 5ft 12s 6s 20 22 mph 1014.6mb 49f 47f
10:50 5ft 11s 6s 20 22 mph 1014.7mb 49f 46f
10:20 5.5ft 11s 7s 20 25 mph 1014.8mb 49f 46f
9:50 5.5ft 11s 6s 20 25 mph 1014.6mb 49f 46f
9:20 6ft 12s 6s 20 25 mph 1014.8mb 49f 46f
8:50 5.5ft 12s 6s 18 20 mph 1015mb 49f 46f
8:20 5.5ft 7s 6s 20 25 mph 1015.1mb 49f 46f
7:50 5ft 9s 6s 16 20 mph 1015.1mb 49f 46f
7:20 5.5ft 12s 7s 16 18 mph 1015.1mb 49f 46f
6:50 5ft 14s 7s 18 20 mph 1015mb 49f 47f
6:20 5ft 7s 7s 11 13 mph 1015.4mb 49f 46f
5:50 5ft 10s 7s 11 16 mph 1015.4mb 49f 46f
5:20 5ft 10s 7s 13 16 mph 1015.4mb 49f 46f
4:50 5ft 7s 7s 11 13 mph 1015.5mb 49f 46f
4:20 5.5ft 6s 7s 13 16 mph 1015.5mb 49f 47f
3:50 5ft 7s 6s 13 18 mph 1015.6mb 49f 47f
3:20 5.5ft 10s 6s 16 20 mph 1015.6mb 49f 47f
2:50 6ft 7s 6s 16 18 mph 1015.7mb 49f 46f
2:20 5.5ft 13s 6s 20 25 mph 1015.8mb 49f 45f
1:50 5.5ft 7s 6s 27 34 mph 1015.6mb 49f 45f
1:20 6ft 9s 6s 11 16 mph 1015.6mb 50f 45f
12:50 5.5ft 12s 6s 22 29 mph 1015.7mb 49f 44f